sensor_id;sensor_type;location;lat;lon;timestamp;pressure;altitude;pressure_sealevel;temperature;humidity
80414;BME280;69758;52.580;13.068;2023-07-13T00:00:47;101057.74;;;24.82;28.86
80414;BME280;69758;52.580;13.068;2023-07-13T00:03:11;101056.70;;;24.72;28.90
80414;BME280;69758;52.580;13.068;2023-07-13T00:05:36;101056.06;;;25.01;28.90
80414;BME280;69758;52.580;13.068;2023-07-13T00:08:01;101057.31;;;24.75;28.86
80414;BME280;69758;52.580;13.068;2023-07-13T00:10:26;101057.29;;;24.75;28.78
80414;BME280;69758;52.580;13.068;2023-07-13T00:12:52;101054.66;;;24.77;28.58
80414;BME280;69758;52.580;13.068;2023-07-13T00:15:19;101057.50;;;25.20;28.74
80414;BME280;69758;52.580;13.068;2023-07-13T00:17:42;101056.53;;;25.24;28.75
80414;BME280;69758;52.580;13.068;2023-07-13T00:20:08;101057.77;;;24.73;28.84
80414;BME280;69758;52.580;13.068;2023-07-13T00:22:32;101054.65;;;24.96;28.92
80414;BME280;69758;52.580;13.068;2023-07-13T00:24:57;101050.00;;;24.62;29.07
80414;BME280;69758;52.580;13.068;2023-07-13T00:27:23;101049.41;;;24.84;29.08
80414;BME280;69758;52.580;13.068;2023-07-13T00:29:48;101059.33;;;24.76;29.18
80414;BME280;69758;52.580;13.068;2023-07-13T00:32:12;101063.90;;;24.76;28.96
80414;BME280;69758;52.580;13.068;2023-07-13T00:34:39;101060.27;;;24.44;29.23
80414;BME280;69758;52.580;13.068;2023-07-13T00:37:04;101057.87;;;24.38;29.31
80414;BME280;69758;52.580;13.068;2023-07-13T00:39:28;101055.05;;;24.64;29.25
80414;BME280;69758;52.580;13.068;2023-07-13T00:41:53;101051.41;;;24.85;29.09
80414;BME280;69758;52.580;13.068;2023-07-13T00:44:20;101057.28;;;24.83;29.16
80414;BME280;69758;52.580;13.068;2023-07-13T00:46:43;101060.16;;;24.63;29.11
80414;BME280;69758;52.580;13.068;2023-07-13T00:49:12;101055.16;;;24.63;29.15
80414;BME280;69758;52.580;13.068;2023-07-13T00:51:36;101052.34;;;24.30;29.29
80414;BME280;69758;52.580;13.068;2023-07-13T00:54:02;101051.49;;;24.28;29.24
80414;BME280;69758;52.580;13.068;2023-07-13T00:56:24;101047.30;;;24.38;29.45
80414;BME280;69758;52.580;13.068;2023-07-13T00:58:49;101044.65;;;24.27;29.52
80414;BME280;69758;52.580;13.068;2023-07-13T01:01:14;101047.86;;;24.12;29.79
80414;BME280;69758;52.580;13.068;2023-07-13T01:03:39;101050.83;;;24.35;29.52
80414;BME280;69758;52.580;13.068;2023-07-13T01:06:04;101058.80;;;24.25;29.74
80414;BME280;69758;52.580;13.068;2023-07-13T01:08:30;101053.56;;;24.23;29.76
80414;BME280;69758;52.580;13.068;2023-07-13T01:10:56;101060.04;;;24.14;29.87
80414;BME280;69758;52.580;13.068;2023-07-13T01:13:20;101060.09;;;24.13;29.83
80414;BME280;69758;52.580;13.068;2023-07-13T01:15:47;101063.96;;;24.08;29.82
80414;BME280;69758;52.580;13.068;2023-07-13T01:18:12;101058.91;;;24.07;30.02
80414;BME280;69758;52.580;13.068;2023-07-13T01:20:36;101057.17;;;23.95;30.13
80414;BME280;69758;52.580;13.068;2023-07-13T01:23:00;101054.24;;;23.86;30.26
80414;BME280;69758;52.580;13.068;2023-07-13T01:25:26;101061.48;;;23.82;30.24
80414;BME280;69758;52.580;13.068;2023-07-13T01:27:51;101063.85;;;23.78;30.27
80414;BME280;69758;52.580;13.068;2023-07-13T01:30:15;101066.91;;;23.68;30.31
80414;BME280;69758;52.580;13.068;2023-07-13T01:32:41;101070.60;;;23.67;30.30
80414;BME280;69758;52.580;13.068;2023-07-13T01:35:06;101070.41;;;23.93;30.19
80414;BME280;69758;52.580;13.068;2023-07-13T01:37:31;101076.20;;;23.66;30.25
80414;BME280;69758;52.580;13.068;2023-07-13T01:39:56;101078.12;;;23.88;30.24
80414;BME280;69758;52.580;13.068;2023-07-13T01:42:21;101074.89;;;23.63;30.45
80414;BME280;69758;52.580;13.068;2023-07-13T01:44:46;101074.18;;;23.58;30.37
80414;BME280;69758;52.580;13.068;2023-07-13T01:47:12;101069.05;;;23.54;30.43
80414;BME280;69758;52.580;13.068;2023-07-13T01:49:36;101067.93;;;23.94;30.60
80414;BME280;69758;52.580;13.068;2023-07-13T01:52:02;101070.31;;;23.64;30.55
80414;BME280;69758;52.580;13.068;2023-07-13T01:54:27;101061.53;;;23.54;30.69
80414;BME280;69758;52.580;13.068;2023-07-13T01:56:52;101056.04;;;23.29;30.73
80414;BME280;69758;52.580;13.068;2023-07-13T01:59:17;101058.61;;;23.35;30.60
80414;BME280;69758;52.580;13.068;2023-07-13T02:01:42;101061.35;;;23.28;30.64
80414;BME280;69758;52.580;13.068;2023-07-13T02:04:07;101061.96;;;23.18;30.80
80414;BME280;69758;52.580;13.068;2023-07-13T02:06:32;101061.27;;;23.33;31.02
80414;BME280;69758;52.580;13.068;2023-07-13T02:08:58;101065.45;;;23.28;31.02
80414;BME280;69758;52.580;13.068;2023-07-13T02:11:23;101068.73;;;23.47;30.92
80414;BME280;69758;52.580;13.068;2023-07-13T02:13:48;101073.94;;;23.24;30.87
80414;BME280;69758;52.580;13.068;2023-07-13T02:16:13;101076.23;;;23.28;30.97
80414;BME280;69758;52.580;13.068;2023-07-13T02:18:39;101075.88;;;22.96;31.13
80414;BME280;69758;52.580;13.068;2023-07-13T02:21:04;101080.77;;;23.43;31.23
80414;BME280;69758;52.580;13.068;2023-07-13T02:23:28;101083.62;;;23.44;31.22
80414;BME280;69758;52.580;13.068;2023-07-13T02:25:55;101087.51;;;23.05;31.13
80414;BME280;69758;52.580;13.068;2023-07-13T02:28:19;101090.34;;;23.10;31.10
80414;BME280;69758;52.580;13.068;2023-07-13T02:30:44;101094.57;;;23.60;30.97
80414;BME280;69758;52.580;13.068;2023-07-13T02:33:09;101094.89;;;23.14;30.97
80414;BME280;69758;52.580;13.068;2023-07-13T02:35:34;101083.73;;;23.16;31.13
80414;BME280;69758;52.580;13.068;2023-07-13T02:37:59;101078.23;;;23.31;31.18
80414;BME280;69758;52.580;13.068;2023-07-13T02:40:24;101076.73;;;23.05;31.17
80414;BME280;69758;52.580;13.068;2023-07-13T02:42:49;101079.29;;;23.29;31.16
80414;BME280;69758;52.580;13.068;2023-07-13T02:45:15;101072.60;;;22.96;31.14
80414;BME280;69758;52.580;13.068;2023-07-13T02:47:41;101069.64;;;23.08;31.29
80414;BME280;69758;52.580;13.068;2023-07-13T02:50:06;101068.42;;;23.14;31.47
80414;BME280;69758;52.580;13.068;2023-07-13T02:52:30;101069.87;;;22.79;31.59
80414;BME280;69758;52.580;13.068;2023-07-13T02:54:55;101074.96;;;22.77;31.61
80414;BME280;69758;52.580;13.068;2023-07-13T02:57:20;101077.39;;;23.05;31.60
80414;BME280;69758;52.580;13.068;2023-07-13T02:59:45;101074.90;;;23.13;31.58
80414;BME280;69758;52.580;13.068;2023-07-13T03:02:11;101074.28;;;23.12;31.52
80414;BME280;69758;52.580;13.068;2023-07-13T03:04:36;101077.78;;;23.06;31.66
80414;BME280;69758;52.580;13.068;2023-07-13T03:07:01;101090.58;;;23.02;31.58
80414;BME280;69758;52.580;13.068;2023-07-13T03:09:26;101099.61;;;22.95;31.59
80414;BME280;69758;52.580;13.068;2023-07-13T03:11:53;101099.33;;;22.40;31.78
80414;BME280;69758;52.580;13.068;2023-07-13T03:14:16;101098.68;;;22.84;31.79
80414;BME280;69758;52.580;13.068;2023-07-13T03:16:41;101103.12;;;22.81;31.85
80414;BME280;69758;52.580;13.068;2023-07-13T03:19:07;101109.65;;;22.81;31.74
80414;BME280;69758;52.580;13.068;2023-07-13T03:21:32;101110.38;;;22.73;31.85
80414;BME280;69758;52.580;13.068;2023-07-13T03:23:57;101114.15;;;22.67;32.00
80414;BME280;69758;52.580;13.068;2023-07-13T03:26:23;101115.59;;;22.67;31.99
80414;BME280;69758;52.580;13.068;2023-07-13T03:28:48;101113.39;;;22.75;31.95
80414;BME280;69758;52.580;13.068;2023-07-13T03:31:15;101110.91;;;22.77;31.90
80414;BME280;69758;52.580;13.068;2023-07-13T03:33:39;101114.10;;;22.98;31.82
80414;BME280;69758;52.580;13.068;2023-07-13T03:36:05;101112.03;;;22.72;32.02
80414;BME280;69758;52.580;13.068;2023-07-13T03:38:28;101112.20;;;22.93;32.13
80414;BME280;69758;52.580;13.068;2023-07-13T03:40:53;101113.99;;;22.69;32.12
80414;BME280;69758;52.580;13.068;2023-07-13T03:43:19;101118.96;;;22.70;32.17
80414;BME280;69758;52.580;13.068;2023-07-13T03:45:44;101120.53;;;22.66;32.18
80414;BME280;69758;52.580;13.068;2023-07-13T03:48:09;101122.21;;;22.89;32.14
80414;BME280;69758;52.580;13.068;2023-07-13T03:50:34;101122.56;;;22.66;32.06
80414;BME280;69758;52.580;13.068;2023-07-13T03:53:00;101119.66;;;22.88;32.23
80414;BME280;69758;52.580;13.068;2023-07-13T03:55:24;101115.30;;;22.53;32.41
80414;BME280;69758;52.580;13.068;2023-07-13T03:57:57;101116.56;;;22.45;32.60
80414;BME280;69758;52.580;13.068;2023-07-13T04:00:15;101120.63;;;22.65;32.73
80414;BME280;69758;52.580;13.068;2023-07-13T04:02:40;101121.97;;;22.61;32.85
80414;BME280;69758;52.580;13.068;2023-07-13T04:05:05;101122.72;;;22.42;32.61
80414;BME280;69758;52.580;13.068;2023-07-13T04:07:30;101125.30;;;22.41;32.79
80414;BME280;69758;52.580;13.068;2023-07-13T04:09:55;101127.80;;;22.48;32.75
80414;BME280;69758;52.580;13.068;2023-07-13T04:12:20;101132.24;;;22.80;32.64
80414;BME280;69758;52.580;13.068;2023-07-13T04:14:45;101133.14;;;22.58;32.63
80414;BME280;69758;52.580;13.068;2023-07-13T04:17:11;101133.92;;;22.63;32.61
80414;BME280;69758;52.580;13.068;2023-07-13T04:19:36;101135.53;;;22.69;32.46
80414;BME280;69758;52.580;13.068;2023-07-13T04:22:01;101136.79;;;22.72;32.37
80414;BME280;69758;52.580;13.068;2023-07-13T04:24:26;101137.60;;;22.73;32.27
80414;BME280;69758;52.580;13.068;2023-07-13T04:26:51;101141.73;;;23.03;32.29
80414;BME280;69758;52.580;13.068;2023-07-13T04:29:16;101142.16;;;23.10;32.22
80414;BME280;69758;52.580;13.068;2023-07-13T04:31:42;101141.16;;;22.62;32.18
80414;BME280;69758;52.580;13.068;2023-07-13T04:34:07;101143.99;;;22.87;32.32
80414;BME280;69758;52.580;13.068;2023-07-13T04:36:32;101144.33;;;22.94;32.32
80414;BME280;69758;52.580;13.068;2023-07-13T04:38:57;101145.27;;;23.04;32.14
80414;BME280;69758;52.580;13.068;2023-07-13T04:41:22;101149.18;;;22.82;32.14
80414;BME280;69758;52.580;13.068;2023-07-13T04:43:48;101152.06;;;22.95;32.20
80414;BME280;69758;52.580;13.068;2023-07-13T04:46:15;101155.62;;;22.99;32.13
80414;BME280;69758;52.580;13.068;2023-07-13T04:48:39;101161.36;;;22.98;32.08
80414;BME280;69758;52.580;13.068;2023-07-13T04:51:03;101162.23;;;23.18;32.27
80414;BME280;69758;52.580;13.068;2023-07-13T04:53:29;101161.96;;;23.16;32.28
80414;BME280;69758;52.580;13.068;2023-07-13T04:55:53;101162.80;;;22.75;32.29
80414;BME280;69758;52.580;13.068;2023-07-13T04:58:18;101164.00;;;23.34;32.25
80414;BME280;69758;52.580;13.068;2023-07-13T05:00:44;101160.90;;;23.41;32.45
80414;BME280;69758;52.580;13.068;2023-07-13T05:03:09;101164.34;;;23.06;32.31
80414;BME280;69758;52.580;13.068;2023-07-13T05:05:34;101161.86;;;23.38;32.08
80414;BME280;69758;52.580;13.068;2023-07-13T05:07:59;101161.24;;;23.17;32.23
80414;BME280;69758;52.580;13.068;2023-07-13T05:10:24;101165.87;;;23.24;32.22
80414;BME280;69758;52.580;13.068;2023-07-13T05:12:49;101158.06;;;23.56;32.18
80414;BME280;69758;52.580;13.068;2023-07-13T05:15:15;101156.59;;;23.40;32.26
80414;BME280;69758;52.580;13.068;2023-07-13T05:17:39;101156.79;;;23.55;32.14
80414;BME280;69758;52.580;13.068;2023-07-13T05:20:06;101160.57;;;23.86;32.29
80414;BME280;69758;52.580;13.068;2023-07-13T05:22:30;101157.76;;;23.51;32.26
80414;BME280;69758;52.580;13.068;2023-07-13T05:24:55;101158.96;;;23.57;32.25
80414;BME280;69758;52.580;13.068;2023-07-13T05:27:20;101161.24;;;23.91;32.27
80414;BME280;69758;52.580;13.068;2023-07-13T05:29:45;101168.44;;;23.65;32.33
80414;BME280;69758;52.580;13.068;2023-07-13T05:32:10;101169.02;;;23.99;32.48
80414;BME280;69758;52.580;13.068;2023-07-13T05:34:35;101170.12;;;23.43;32.55
80414;BME280;69758;52.580;13.068;2023-07-13T05:37:00;101169.63;;;23.60;32.22
80414;BME280;69758;52.580;13.068;2023-07-13T05:39:25;101173.21;;;23.86;32.18
80414;BME280;69758;52.580;13.068;2023-07-13T05:41:51;101174.40;;;24.03;32.16
80414;BME280;69758;52.580;13.068;2023-07-13T05:44:16;101176.51;;;23.97;32.11
80414;BME280;69758;52.580;13.068;2023-07-13T05:46:41;101179.93;;;24.37;31.87
80414;BME280;69758;52.580;13.068;2023-07-13T05:49:06;101179.59;;;24.24;31.80
80414;BME280;69758;52.580;13.068;2023-07-13T05:51:31;101180.49;;;24.65;31.46
80414;BME280;69758;52.580;13.068;2023-07-13T05:53:56;101180.57;;;24.72;31.32
80414;BME280;69758;52.580;13.068;2023-07-13T05:56:21;101180.32;;;24.21;31.47
80414;BME280;69758;52.580;13.068;2023-07-13T05:58:48;101181.58;;;24.44;31.70
80414;BME280;69758;52.580;13.068;2023-07-13T06:01:14;101179.06;;;24.24;31.81
80414;BME280;69758;52.580;13.068;2023-07-13T06:03:36;101177.79;;;24.20;31.60
80414;BME280;69758;52.580;13.068;2023-07-13T06:06:02;101177.26;;;24.35;31.47
80414;BME280;69758;52.580;13.068;2023-07-13T06:08:27;101178.33;;;24.69;31.30
80414;BME280;69758;52.580;13.068;2023-07-13T06:10:52;101177.74;;;24.50;31.71
80414;BME280;69758;52.580;13.068;2023-07-13T06:13:17;101175.18;;;24.50;31.47
80414;BME280;69758;52.580;13.068;2023-07-13T06:15:42;101181.67;;;24.58;31.18
80414;BME280;69758;52.580;13.068;2023-07-13T06:18:07;101185.83;;;24.67;31.16
80414;BME280;69758;52.580;13.068;2023-07-13T06:20:33;101190.24;;;24.55;30.68
80414;BME280;69758;52.580;13.068;2023-07-13T06:22:57;101189.82;;;24.75;30.68
80414;BME280;69758;52.580;13.068;2023-07-13T06:25:23;101186.95;;;24.49;30.92
80414;BME280;69758;52.580;13.068;2023-07-13T06:27:47;101184.23;;;24.81;31.12
80414;BME280;69758;52.580;13.068;2023-07-13T06:30:13;101185.77;;;25.09;30.61
80414;BME280;69758;52.580;13.068;2023-07-13T06:32:38;101183.89;;;25.34;30.41
80414;BME280;69758;52.580;13.068;2023-07-13T06:35:03;101179.63;;;25.30;30.24
80414;BME280;69758;52.580;13.068;2023-07-13T06:37:28;101175.48;;;25.46;30.11
80414;BME280;69758;52.580;13.068;2023-07-13T06:39:53;101167.89;;;25.63;30.01
80414;BME280;69758;52.580;13.068;2023-07-13T06:42:18;101168.77;;;25.70;29.95
80414;BME280;69758;52.580;13.068;2023-07-13T06:44:43;101170.14;;;25.73;29.83
80414;BME280;69758;52.580;13.068;2023-07-13T06:47:08;101172.50;;;25.77;29.78
80414;BME280;69758;52.580;13.068;2023-07-13T06:49:33;101169.40;;;25.69;29.69
80414;BME280;69758;52.580;13.068;2023-07-13T06:52:03;101165.96;;;25.76;29.44
80414;BME280;69758;52.580;13.068;2023-07-13T06:54:24;101164.05;;;24.70;29.39
80414;BME280;69758;52.580;13.068;2023-07-13T06:56:49;101158.77;;;26.01;28.88
80414;BME280;69758;52.580;13.068;2023-07-13T06:59:20;101160.06;;;25.93;28.99
80414;BME280;69758;52.580;13.068;2023-07-13T07:01:40;101165.47;;;26.04;29.02
80414;BME280;69758;52.580;13.068;2023-07-13T07:04:04;101169.80;;;25.99;29.03
80414;BME280;69758;52.580;13.068;2023-07-13T07:06:30;101176.92;;;26.24;29.20
80414;BME280;69758;52.580;13.068;2023-07-13T07:09:05;101178.22;;;26.11;28.65
80414;BME280;69758;52.580;13.068;2023-07-13T07:11:27;101175.94;;;25.89;28.43
80414;BME280;69758;52.580;13.068;2023-07-13T07:13:45;101176.03;;;25.87;28.43
80414;BME280;69758;52.580;13.068;2023-07-13T07:16:10;101174.95;;;26.41;28.69
80414;BME280;69758;52.580;13.068;2023-07-13T07:18:44;101176.58;;;26.10;28.77
80414;BME280;69758;52.580;13.068;2023-07-13T07:20:59;101181.13;;;26.30;28.57
80414;BME280;69758;52.580;13.068;2023-07-13T07:23:25;101178.53;;;26.27;27.91
80414;BME280;69758;52.580;13.068;2023-07-13T07:25:49;101179.56;;;26.16;27.79
80414;BME280;69758;52.580;13.068;2023-07-13T07:28:20;101183.86;;;26.54;26.99
80414;BME280;69758;52.580;13.068;2023-07-13T07:30:42;101187.59;;;26.11;27.21
80414;BME280;69758;52.580;13.068;2023-07-13T07:35:30;101190.51;;;26.63;24.74
80414;BME280;69758;52.580;13.068;2023-07-13T07:37:54;101190.78;;;26.41;25.67
80414;BME280;69758;52.580;13.068;2023-07-13T07:40:19;101194.05;;;26.35;25.52
80414;BME280;69758;52.580;13.068;2023-07-13T07:45:10;101193.55;;;26.46;25.37
80414;BME280;69758;52.580;13.068;2023-07-13T07:47:34;101196.35;;;26.67;25.17
80414;BME280;69758;52.580;13.068;2023-07-13T07:49:59;101197.23;;;26.73;25.51
80414;BME280;69758;52.580;13.068;2023-07-13T07:52:24;101194.55;;;26.50;25.07
80414;BME280;69758;52.580;13.068;2023-07-13T07:54:49;101193.19;;;26.97;25.40
80414;BME280;69758;52.580;13.068;2023-07-13T07:57:17;101194.59;;;26.84;25.74
80414;BME280;69758;52.580;13.068;2023-07-13T07:59:39;101194.15;;;26.51;26.11
80414;BME280;69758;52.580;13.068;2023-07-13T08:02:05;101194.14;;;26.59;25.17
80414;BME280;69758;52.580;13.068;2023-07-13T08:04:29;101195.79;;;26.71;24.90
80414;BME280;69758;52.580;13.068;2023-07-13T08:06:55;101198.98;;;26.48;24.70
80414;BME280;69758;52.580;13.068;2023-07-13T08:09:21;101198.98;;;26.32;24.89
80414;BME280;69758;52.580;13.068;2023-07-13T08:11:44;101200.90;;;26.27;24.66
80414;BME280;69758;52.580;13.068;2023-07-13T08:14:09;101198.29;;;26.13;24.65
80414;BME280;69758;52.580;13.068;2023-07-13T08:16:34;101197.85;;;26.61;25.08
80414;BME280;69758;52.580;13.068;2023-07-13T08:19:04;101198.16;;;26.79;25.14
80414;BME280;69758;52.580;13.068;2023-07-13T08:21:25;101198.08;;;26.79;25.30
80414;BME280;69758;52.580;13.068;2023-07-13T08:23:50;101199.71;;;26.62;25.15
80414;BME280;69758;52.580;13.068;2023-07-13T08:26:14;101200.52;;;26.46;24.96
80414;BME280;69758;52.580;13.068;2023-07-13T08:28:40;101199.73;;;26.89;24.96
80414;BME280;69758;52.580;13.068;2023-07-13T08:31:06;101198.03;;;27.02;25.27
80414;BME280;69758;52.580;13.068;2023-07-13T08:33:29;101198.35;;;26.79;23.30
80414;BME280;69758;52.580;13.068;2023-07-13T08:35:55;101194.93;;;26.79;23.52
80414;BME280;69758;52.580;13.068;2023-07-13T08:38:20;101191.65;;;26.96;23.34
80414;BME280;69758;52.580;13.068;2023-07-13T08:40:50;101199.37;;;27.10;23.42
80414;BME280;69758;52.580;13.068;2023-07-13T08:43:15;101196.01;;;27.10;24.45
80414;BME280;69758;52.580;13.068;2023-07-13T08:45:41;101190.81;;;27.02;24.61
80414;BME280;69758;52.580;13.068;2023-07-13T08:48:02;101191.14;;;27.18;24.93
80414;BME280;69758;52.580;13.068;2023-07-13T08:50:29;101190.34;;;27.29;24.51
80414;BME280;69758;52.580;13.068;2023-07-13T08:52:50;101188.25;;;27.41;24.63
80414;BME280;69758;52.580;13.068;2023-07-13T08:55:25;101188.38;;;27.86;23.54
80414;BME280;69758;52.580;13.068;2023-07-13T08:57:43;101192.88;;;27.81;24.27
80414;BME280;69758;52.580;13.068;2023-07-13T09:00:10;101191.37;;;27.64;24.09
80414;BME280;69758;52.580;13.068;2023-07-13T09:05:03;101187.05;;;28.13;23.92
80414;BME280;69758;52.580;13.068;2023-07-13T09:07:32;101187.65;;;28.10;23.88
80414;BME280;69758;52.580;13.068;2023-07-13T09:09:58;101188.74;;;28.14;23.36
80414;BME280;69758;52.580;13.068;2023-07-13T09:12:22;101188.70;;;28.05;23.43
80414;BME280;69758;52.580;13.068;2023-07-13T09:14:44;101191.67;;;27.49;23.23
80414;BME280;69758;52.580;13.068;2023-07-13T09:17:14;101195.52;;;27.58;23.24
80414;BME280;69758;52.580;13.068;2023-07-13T09:19:34;101188.95;;;27.73;23.30
80414;BME280;69758;52.580;13.068;2023-07-13T09:22:02;101190.96;;;27.60;23.67
80414;BME280;69758;52.580;13.068;2023-07-13T09:24:36;101189.23;;;27.88;23.99
80414;BME280;69758;52.580;13.068;2023-07-13T09:26:51;101193.71;;;28.11;23.57
80414;BME280;69758;52.580;13.068;2023-07-13T09:29:23;101194.98;;;28.00;23.77
80414;BME280;69758;52.580;13.068;2023-07-13T09:31:47;101195.86;;;28.21;23.45
80414;BME280;69758;52.580;13.068;2023-07-13T09:34:12;101191.55;;;28.33;23.16
80414;BME280;69758;52.580;13.068;2023-07-13T09:36:35;101193.07;;;28.86;23.05
80414;BME280;69758;52.580;13.068;2023-07-13T09:39:04;101194.21;;;28.88;22.53
80414;BME280;69758;52.580;13.068;2023-07-13T09:41:31;101198.37;;;29.05;22.62
80414;BME280;69758;52.580;13.068;2023-07-13T09:44:01;101192.96;;;28.89;22.71
80414;BME280;69758;52.580;13.068;2023-07-13T09:46:25;101192.49;;;28.93;22.57
80414;BME280;69758;52.580;13.068;2023-07-13T09:48:45;101196.66;;;28.63;22.52
80414;BME280;69758;52.580;13.068;2023-07-13T09:51:13;101199.64;;;28.67;22.46
80414;BME280;69758;52.580;13.068;2023-07-13T09:53:36;101207.69;;;28.89;22.20
80414;BME280;69758;52.580;13.068;2023-07-13T09:56:02;101205.35;;;28.14;21.75
80414;BME280;69758;52.580;13.068;2023-07-13T09:58:30;101204.43;;;28.18;21.81
80414;BME280;69758;52.580;13.068;2023-07-13T10:00:55;101208.38;;;28.46;21.75
80414;BME280;69758;52.580;13.068;2023-07-13T10:03:21;101212.01;;;28.22;21.91
80414;BME280;69758;52.580;13.068;2023-07-13T10:05:47;101210.64;;;28.21;21.95
80414;BME280;69758;52.580;13.068;2023-07-13T10:08:18;101214.80;;;28.28;22.02
80414;BME280;69758;52.580;13.068;2023-07-13T10:10:37;101211.55;;;27.62;22.21
80414;BME280;69758;52.580;13.068;2023-07-13T10:13:04;101214.29;;;27.48;22.31
80414;BME280;69758;52.580;13.068;2023-07-13T10:15:29;101215.73;;;27.68;22.68
80414;BME280;69758;52.580;13.068;2023-07-13T10:17:55;101209.71;;;27.84;22.43
80414;BME280;69758;52.580;13.068;2023-07-13T10:20:20;101204.99;;;28.16;23.28
80414;BME280;69758;52.580;13.068;2023-07-13T10:22:49;101202.59;;;27.96;22.37
80414;BME280;69758;52.580;13.068;2023-07-13T10:25:18;101200.92;;;28.19;22.24
80414;BME280;69758;52.580;13.068;2023-07-13T10:27:36;101202.85;;;28.34;21.93
80414;BME280;69758;52.580;13.068;2023-07-13T10:30:09;101200.18;;;28.40;21.43
80414;BME280;69758;52.580;13.068;2023-07-13T10:32:28;101205.82;;;28.36;21.36
80414;BME280;69758;52.580;13.068;2023-07-13T10:34:55;101203.61;;;28.54;21.36
80414;BME280;69758;52.580;13.068;2023-07-13T10:37:22;101205.28;;;28.21;20.88
80414;BME280;69758;52.580;13.068;2023-07-13T10:39:45;101206.43;;;28.25;21.27
80414;BME280;69758;52.580;13.068;2023-07-13T10:42:15;101206.50;;;28.28;21.52
80414;BME280;69758;52.580;13.068;2023-07-13T10:44:37;101202.09;;;28.33;21.61
80414;BME280;69758;52.580;13.068;2023-07-13T10:47:06;101198.90;;;28.67;21.92
80414;BME280;69758;52.580;13.068;2023-07-13T10:49:31;101203.79;;;28.21;21.22
80414;BME280;69758;52.580;13.068;2023-07-13T10:51:55;101200.07;;;28.12;21.16
80414;BME280;69758;52.580;13.068;2023-07-13T10:54:22;101202.02;;;28.67;21.46
80414;BME280;69758;52.580;13.068;2023-07-13T10:56:49;101200.80;;;28.50;20.88
80414;BME280;69758;52.580;13.068;2023-07-13T10:59:24;101197.03;;;28.39;20.72
80414;BME280;69758;52.580;13.068;2023-07-13T11:04:04;101195.15;;;28.22;19.97
80414;BME280;69758;52.580;13.068;2023-07-13T11:06:34;101200.17;;;28.23;20.41
80414;BME280;69758;52.580;13.068;2023-07-13T11:08:57;101195.93;;;28.43;20.14
80414;BME280;69758;52.580;13.068;2023-07-13T11:11:34;101198.06;;;28.83;19.09
80414;BME280;69758;52.580;13.068;2023-07-13T11:13:58;101201.58;;;28.37;19.52
80414;BME280;69758;52.580;13.068;2023-07-13T11:16:26;101203.81;;;28.32;19.84
80414;BME280;69758;52.580;13.068;2023-07-13T11:18:40;101204.52;;;28.77;20.01
80414;BME280;69758;52.580;13.068;2023-07-13T11:21:15;101208.82;;;28.70;19.91
80414;BME280;69758;52.580;13.068;2023-07-13T11:23:31;101200.88;;;28.39;20.66
80414;BME280;69758;52.580;13.068;2023-07-13T11:25:56;101201.85;;;28.55;20.82
80414;BME280;69758;52.580;13.068;2023-07-13T11:28:24;101206.81;;;28.22;20.98
80414;BME280;69758;52.580;13.068;2023-07-13T11:33:17;101206.70;;;28.29;21.20
80414;BME280;69758;52.580;13.068;2023-07-13T11:35:46;101205.88;;;28.40;20.66
80414;BME280;69758;52.580;13.068;2023-07-13T11:38:13;101207.75;;;28.32;21.07
80414;BME280;69758;52.580;13.068;2023-07-13T11:42:59;101209.56;;;28.59;21.45
80414;BME280;69758;52.580;13.068;2023-07-13T11:45:23;101215.71;;;28.33;21.42
80414;BME280;69758;52.580;13.068;2023-07-13T11:47:49;101209.80;;;28.33;21.23
80414;BME280;69758;52.580;13.068;2023-07-13T11:50:19;101210.68;;;28.67;21.18
80414;BME280;69758;52.580;13.068;2023-07-13T11:52:41;101204.06;;;28.57;21.22
80414;BME280;69758;52.580;13.068;2023-07-13T11:55:14;101203.85;;;28.95;20.78
80414;BME280;69758;52.580;13.068;2023-07-13T11:57:37;101207.66;;;28.27;20.89
80414;BME280;69758;52.580;13.068;2023-07-13T12:00:11;101205.90;;;28.66;20.76
80414;BME280;69758;52.580;13.068;2023-07-13T12:02:29;101201.68;;;29.07;20.03
80414;BME280;69758;52.580;13.068;2023-07-13T12:04:50;101194.74;;;29.00;20.24
80414;BME280;69758;52.580;13.068;2023-07-13T12:07:17;101194.23;;;29.09;20.22
80414;BME280;69758;52.580;13.068;2023-07-13T12:09:42;101193.46;;;28.80;20.53
80414;BME280;69758;52.580;13.068;2023-07-13T12:12:11;101194.99;;;29.07;20.37
80414;BME280;69758;52.580;13.068;2023-07-13T12:14:34;101189.92;;;29.20;19.98
80414;BME280;69758;52.580;13.068;2023-07-13T12:16:59;101188.45;;;29.68;19.86
80414;BME280;69758;52.580;13.068;2023-07-13T12:19:27;101195.20;;;29.66;19.71
80414;BME280;69758;52.580;13.068;2023-07-13T12:21:53;101194.18;;;29.54;19.20
80414;BME280;69758;52.580;13.068;2023-07-13T12:24:18;101198.79;;;29.61;18.94
80414;BME280;69758;52.580;13.068;2023-07-13T12:26:42;101197.20;;;29.52;19.04
80414;BME280;69758;52.580;13.068;2023-07-13T12:29:15;101191.45;;;30.02;18.66
80414;BME280;69758;52.580;13.068;2023-07-13T12:31:37;101189.40;;;30.16;19.23
80414;BME280;69758;52.580;13.068;2023-07-13T12:34:01;101190.42;;;30.04;19.09
80414;BME280;69758;52.580;13.068;2023-07-13T12:36:25;101192.00;;;29.96;18.65
80414;BME280;69758;52.580;13.068;2023-07-13T12:38:51;101191.85;;;29.96;18.35
80414;BME280;69758;52.580;13.068;2023-07-13T12:41:17;101187.68;;;29.92;18.27
80414;BME280;69758;52.580;13.068;2023-07-13T12:43:45;101198.88;;;30.02;18.52